createdAt,value
2022-10-11T00:01:39.863Z,100655.39
2022-10-11T00:04:11.666Z,100663.55
2022-10-11T00:06:43.991Z,100664.70
2022-10-11T00:09:16.072Z,100672.20
2022-10-11T00:11:47.727Z,100670.55
2022-10-11T00:14:19.463Z,100674.76
2022-10-11T00:16:51.216Z,100679.84
2022-10-11T00:19:23.853Z,100678.65
2022-10-11T00:21:56.061Z,100679.95
2022-10-11T00:24:27.809Z,100681.14
2022-10-11T00:26:59.696Z,100687.41
2022-10-11T00:29:31.446Z,100687.16
2022-10-11T00:32:04.606Z,100691.16
2022-10-11T00:34:37.604Z,100702.56
2022-10-11T00:37:07.839Z,100704.62
2022-10-11T00:39:39.486Z,100710.35
2022-10-11T00:42:15.368Z,100702.48
2022-10-11T00:44:49.706Z,100718.08
2022-10-11T00:47:24.449Z,100722.83
2022-10-11T00:49:59.039Z,100721.84
2022-10-11T00:52:35.909Z,100714.27
2022-10-11T00:55:10.177Z,100720.77
2022-10-11T00:57:46.145Z,100727.80
2022-10-11T01:00:18.871Z,100732.36
2022-10-11T01:02:49.225Z,100736.77
2022-10-11T01:05:30.302Z,100735.17
2022-10-11T01:08:03.571Z,100741.58
2022-10-11T01:10:35.875Z,100747.91
2022-10-11T01:13:19.249Z,100748.85
2022-10-11T01:15:56.089Z,100753.10
2022-10-11T01:18:36.849Z,100749.08
2022-10-11T01:21:17.630Z,100743.92
2022-10-11T01:24:34.434Z,100753.30
2022-10-11T01:27:30.950Z,100749.20
2022-10-11T01:30:15.796Z,100750.17
2022-10-11T01:32:55.403Z,100746.98
2022-10-11T01:35:34.726Z,100743.86
2022-10-11T01:38:14.211Z,100750.20
2022-10-11T01:40:52.187Z,100759.40
2022-10-11T01:43:27.357Z,100762.27
2022-10-11T01:46:02.100Z,100765.64
2022-10-11T01:48:34.151Z,100766.64
2022-10-11T01:51:06.157Z,100774.67
2022-10-11T01:53:57.381Z,100775.64
2022-10-11T01:56:53.287Z,100782.73
2022-10-11T01:59:40.566Z,100781.67
2022-10-11T02:02:28.798Z,100781.87
2022-10-11T02:05:09.631Z,100786.52
2022-10-11T02:07:46.399Z,100789.66
2022-10-11T02:10:27.436Z,100795.61
2022-10-11T02:13:03.111Z,100797.19
2022-10-11T02:15:39.579Z,100804.08
2022-10-11T02:18:16.756Z,100804.19
2022-10-11T02:20:50.074Z,100807.16
2022-10-11T02:23:27.803Z,100809.98
2022-10-11T02:26:01.482Z,100807.96
2022-10-11T02:28:36.744Z,100808.83
2022-10-11T02:31:12.738Z,100816.53
2022-10-11T02:33:49.756Z,100814.79
2022-10-11T02:36:27.816Z,100810.06
2022-10-11T02:39:07.809Z,100818.74
2022-10-11T02:41:43.163Z,100816.33
2022-10-11T02:44:19.995Z,100818.27
2022-10-11T02:46:53.209Z,100822.73
2022-10-11T02:49:25.688Z,100826.93
2022-10-11T02:51:59.802Z,100829.19
2022-10-11T02:54:31.672Z,100826.75
2022-10-11T02:57:03.309Z,100824.86
2022-10-11T02:59:34.979Z,100830.51
2022-10-11T03:02:06.799Z,100834.33
2022-10-11T03:04:38.496Z,100836.52
2022-10-11T03:07:10.206Z,100842.77
2022-10-11T03:09:42.016Z,100850.17
2022-10-11T03:12:13.707Z,100850.32
2022-10-11T03:14:46.015Z,100855.33
2022-10-11T03:17:35.659Z,100864.70
2022-10-11T03:20:10.629Z,100870.12
2022-10-11T03:22:42.333Z,100870.23
2022-10-11T03:25:14.560Z,100871.56
2022-10-11T03:27:46.243Z,100877.19
2022-10-11T03:30:18.607Z,100885.27
2022-10-11T03:32:50.815Z,100888.98
2022-10-11T03:35:22.534Z,100897.28
2022-10-11T03:37:54.249Z,100901.95
2022-10-11T03:40:25.934Z,100902.88
2022-10-11T03:42:59.042Z,100909.02
2022-10-11T03:45:30.723Z,100914.95
2022-10-11T03:48:03.183Z,100915.23
2022-10-11T03:50:35.351Z,100922.75
2022-10-11T03:53:08.402Z,100933.05
2022-10-11T03:55:42.347Z,100932.84
2022-10-11T03:58:14.805Z,100937.90
2022-10-11T04:00:45.969Z,100943.70
2022-10-11T04:03:19.808Z,100949.12
2022-10-11T04:05:52.553Z,100952.20
2022-10-11T04:08:24.222Z,100954.86
2022-10-11T04:10:55.965Z,100960.17
2022-10-11T04:13:27.708Z,100956.27
2022-10-11T04:15:59.383Z,100960.88
2022-10-11T04:18:31.606Z,100968.90
2022-10-11T04:21:03.253Z,100967.60
2022-10-11T04:23:35.687Z,100965.85
2022-10-11T04:26:09.003Z,100971.83
2022-10-11T04:28:41.378Z,100975.03
2022-10-11T04:31:13.598Z,100979.24
2022-10-11T04:33:45.328Z,100983.96
2022-10-11T04:36:17.311Z,100987.52
2022-10-11T04:38:48.955Z,100991.27
2022-10-11T04:41:20.661Z,100996.01
2022-10-11T04:43:52.245Z,101001.75
2022-10-11T04:46:24.023Z,101008.33
2022-10-11T04:48:56.023Z,101011.17
2022-10-11T04:51:28.784Z,101014.95
2022-10-11T04:54:01.164Z,101016.73
2022-10-11T04:56:33.029Z,101024.40
2022-10-11T04:59:04.729Z,101025.70
2022-10-11T05:01:36.526Z,101023.89
2022-10-11T05:04:08.463Z,101028.55
2022-10-11T05:06:40.214Z,101035.83
2022-10-11T05:09:12.382Z,101040.50
2022-10-11T05:11:44.063Z,101046.11
2022-10-11T05:14:16.169Z,101046.91
2022-10-11T05:16:50.998Z,101048.13
2022-10-11T05:19:23.957Z,101054.32
2022-10-11T05:21:55.035Z,101054.05
2022-10-11T05:24:26.805Z,101060.88
2022-10-11T05:27:03.012Z,101062.39
2022-10-11T05:29:35.400Z,101066.69
2022-10-11T05:32:07.674Z,101069.07
2022-10-11T05:34:39.374Z,101077.89
2022-10-11T05:37:10.969Z,101075.73
2022-10-11T05:39:42.585Z,101083.44
2022-10-11T05:42:14.736Z,101084.58
2022-10-11T05:44:48.043Z,101093.05
2022-10-11T05:47:21.320Z,101094.39
2022-10-11T05:49:53.081Z,101100.84
2022-10-11T05:52:24.744Z,101107.31
2022-10-11T05:54:56.507Z,101113.36
2022-10-11T05:57:28.243Z,101116.98
2022-10-11T06:00:00.143Z,101118.30
2022-10-11T06:02:32.066Z,101124.63
2022-10-11T06:05:03.978Z,101129.69
2022-10-11T06:07:38.447Z,101132.30
2022-10-11T06:10:11.389Z,101134.46
2022-10-11T06:12:44.338Z,101141.27
2022-10-11T06:15:16.071Z,101147.22
2022-10-11T06:17:49.023Z,101150.92
2022-10-11T06:20:20.986Z,101158.27
2022-10-11T06:22:52.694Z,101164.62
2022-10-11T06:25:24.643Z,101165.45
2022-10-11T06:27:56.351Z,101172.03
2022-10-11T06:30:28.178Z,101179.92
2022-10-11T06:33:03.873Z,101183.88
2022-10-11T06:35:36.642Z,101192.30
2022-10-11T06:38:08.331Z,101195.02
2022-10-11T06:40:40.127Z,101200.21
2022-10-11T06:43:11.955Z,101208.29
2022-10-11T06:45:43.602Z,101205.48
2022-10-11T06:48:15.317Z,101208.52
2022-10-11T06:50:59.552Z,101211.27
2022-10-11T06:53:32.341Z,101219.43
2022-10-11T06:56:09.891Z,101219.14
2022-10-11T06:58:42.190Z,101224.75
2022-10-11T07:01:18.607Z,101228.00
2022-10-11T07:03:51.180Z,101231.48
2022-10-11T07:06:25.069Z,101232.21
2022-10-11T07:08:57.422Z,101237.98
2022-10-11T07:11:30.420Z,101236.50
2022-10-11T07:14:07.381Z,101242.73
2022-10-11T07:16:39.440Z,101246.96
2022-10-11T07:19:11.909Z,101251.10
2022-10-11T07:21:43.738Z,101248.11
2022-10-11T07:24:15.559Z,101254.79
2022-10-11T07:26:47.451Z,101261.95
2022-10-11T07:29:19.324Z,101270.08
2022-10-11T07:31:51.755Z,101270.30
2022-10-11T07:34:23.910Z,101267.55
2022-10-11T07:36:55.652Z,101273.40
2022-10-11T07:39:27.802Z,101276.61
2022-10-11T07:41:59.633Z,101279.46
2022-10-11T07:44:31.511Z,101282.84
2022-10-11T07:47:06.649Z,101283.16
2022-10-11T07:49:40.830Z,101289.38
2022-10-11T07:52:12.558Z,101294.64
2022-10-11T07:54:44.334Z,101294.02
2022-10-11T07:57:16.151Z,101298.96
2022-10-11T07:59:50.251Z,101301.80
2022-10-11T08:02:22.340Z,101308.25
2022-10-11T08:04:54.041Z,101314.50
2022-10-11T08:07:25.763Z,101320.52
2022-10-11T08:09:57.808Z,101321.22
2022-10-11T08:12:29.826Z,101321.48
2022-10-11T08:15:02.666Z,101318.77
2022-10-11T08:17:34.464Z,101323.98
2022-10-11T08:20:07.047Z,101325.99
2022-10-11T08:22:39.235Z,101322.38
2022-10-11T08:25:11.730Z,101320.14
2022-10-11T08:27:43.605Z,101324.58
2022-10-11T08:30:16.389Z,101325.02
2022-10-11T08:32:46.812Z,101333.08
2022-10-11T08:35:18.836Z,101329.63
2022-10-11T08:37:50.981Z,101325.10
2022-10-11T08:40:25.479Z,101330.38
2022-10-11T08:43:04.077Z,101330.67
2022-10-11T08:45:40.546Z,101329.36
2022-10-11T08:48:18.743Z,101330.88
2022-10-11T08:50:53.749Z,101340.24
2022-10-11T08:53:37.070Z,101338.13
2022-10-11T08:56:13.214Z,101344.28
2022-10-11T08:58:52.644Z,101340.79
2022-10-11T09:01:27.232Z,101343.91
2022-10-11T09:04:00.147Z,101341.11
2022-10-11T09:06:40.686Z,101346.35
2022-10-11T09:09:27.167Z,101347.18
2022-10-11T09:12:11.207Z,101347.65
2022-10-11T09:15:00.717Z,101352.45
2022-10-11T09:17:48.352Z,101355.72
2022-10-11T09:20:32.282Z,101349.36
2022-10-11T09:23:12.791Z,101354.05
2022-10-11T09:25:50.710Z,101354.84
2022-10-11T09:28:34.487Z,101354.83
2022-10-11T09:31:10.344Z,101352.70
2022-10-11T09:33:46.775Z,101351.55
2022-10-11T09:36:26.773Z,101350.61
2022-10-11T09:39:06.912Z,101350.15
2022-10-11T09:41:46.497Z,101355.35
2022-10-11T09:44:23.576Z,101355.21
2022-10-11T09:46:57.426Z,101352.05
2022-10-11T09:49:34.527Z,101351.77
2022-10-11T09:52:16.063Z,101348.66
2022-10-11T09:54:50.071Z,101350.99
2022-10-11T09:57:24.800Z,101342.14
2022-10-11T10:00:06.676Z,101351.67
2022-10-11T10:02:46.950Z,101351.81
2022-10-11T10:05:24.417Z,101345.68
2022-10-11T10:08:08.074Z,101351.14
2022-10-11T10:10:43.363Z,101350.98
2022-10-11T10:13:24.410Z,101352.25
2022-10-11T10:15:59.548Z,101347.27
2022-10-11T10:18:37.214Z,101355.15
2022-10-11T10:21:14.067Z,101357.84
2022-10-11T10:23:46.179Z,101360.55
2022-10-11T10:26:21.204Z,101365.02
2022-10-11T10:29:05.958Z,101362.82
2022-10-11T10:32:02.048Z,101362.06
2022-10-11T10:34:36.049Z,101361.75
2022-10-11T10:37:16.825Z,101366.06
2022-10-11T10:39:54.542Z,101374.55
2022-10-11T10:42:26.465Z,101373.26
2022-10-11T10:45:00.145Z,101375.38
2022-10-11T10:47:53.646Z,101372.47
2022-10-11T10:50:33.973Z,101369.27
2022-10-11T10:53:20.219Z,101368.60
2022-10-11T10:55:59.399Z,101366.27
2022-10-11T10:58:51.204Z,101365.60
2022-10-11T11:01:27.607Z,101363.68
2022-10-11T11:04:08.901Z,101363.70
2022-10-11T11:06:50.816Z,101365.20
2022-10-11T11:09:37.561Z,101363.54
2022-10-11T11:12:22.886Z,101371.25
2022-10-11T11:15:02.959Z,101373.99
2022-10-11T11:17:48.210Z,101379.70
2022-10-11T11:20:30.379Z,101376.14
2022-10-11T11:23:10.051Z,101376.98
2022-10-11T11:25:49.606Z,101379.88
2022-10-11T11:28:49.021Z,101377.80
2022-10-11T11:31:41.531Z,101378.13
2022-10-11T11:34:21.200Z,101379.27
2022-10-11T11:36:57.994Z,101375.00
2022-10-11T11:39:36.373Z,101381.77
2022-10-11T11:42:12.999Z,101380.73
2022-10-11T11:44:47.928Z,101381.08
2022-10-11T11:47:25.667Z,101379.61
2022-10-11T11:50:00.795Z,101376.28
2022-10-11T11:52:38.353Z,101384.41
2022-10-11T11:55:15.415Z,101384.66
2022-10-11T11:58:01.038Z,101383.30
2022-10-11T12:00:43.747Z,101383.93
2022-10-11T12:03:25.214Z,101378.05
2022-10-11T12:06:35.914Z,101382.62
2022-10-11T12:09:22.794Z,101382.38
2022-10-11T12:11:58.669Z,101381.40
2022-10-11T12:14:39.504Z,101383.77
2022-10-11T12:17:15.751Z,101374.27
2022-10-11T12:20:14.562Z,101370.60
2022-10-11T12:23:00.251Z,101369.99
2022-10-11T12:25:42.085Z,101370.48
2022-10-11T12:28:49.684Z,101364.96
2022-10-11T12:31:26.035Z,101367.96
2022-10-11T12:34:19.607Z,101370.46
2022-10-11T12:36:52.147Z,101377.80
2022-10-11T12:39:54.486Z,101377.88
2022-10-11T12:42:30.105Z,101383.02
2022-10-11T12:45:32.597Z,101383.30
2022-10-11T12:48:41.170Z,101381.34
2022-10-11T12:51:38.061Z,101380.06
2022-10-11T12:54:34.601Z,101385.94
2022-10-11T12:57:47.155Z,101384.61
2022-10-11T13:00:28.986Z,101382.97
2022-10-11T13:03:05.808Z,101387.26
2022-10-11T13:05:49.691Z,101389.61
2022-10-11T13:08:29.901Z,101387.72
2022-10-11T13:11:07.464Z,101384.30
2022-10-11T13:13:45.031Z,101381.33
2022-10-11T13:16:20.959Z,101385.41
2022-10-11T13:18:58.518Z,101380.27
2022-10-11T13:21:36.106Z,101385.77
2022-10-11T13:24:14.315Z,101381.91
2022-10-11T13:26:48.140Z,101378.52
2022-10-11T13:29:30.060Z,101384.39
2022-10-11T13:32:04.556Z,101384.66
2022-10-11T13:34:40.654Z,101385.33
2022-10-11T13:37:20.034Z,101388.36
2022-10-11T13:39:54.955Z,101386.96
2022-10-11T13:42:31.860Z,101383.64
2022-10-11T13:45:04.698Z,101385.69
2022-10-11T13:47:38.112Z,101381.57
2022-10-11T13:50:26.474Z,101383.70
2022-10-11T13:53:01.569Z,101383.96
2022-10-11T13:55:37.817Z,101383.91
2022-10-11T13:58:18.876Z,101384.55
2022-10-11T14:00:58.979Z,101379.08
2022-10-11T14:03:40.611Z,101379.85
2022-10-11T14:06:12.609Z,101382.19
2022-10-11T14:08:49.021Z,101384.05
2022-10-11T14:11:36.193Z,101378.57
2022-10-11T14:14:31.478Z,101379.27
2022-10-11T14:17:15.628Z,101382.17
2022-10-11T14:19:49.805Z,101382.73
2022-10-11T14:22:21.622Z,101382.78
2022-10-11T14:24:53.364Z,101387.20
2022-10-11T14:27:28.955Z,101390.22
2022-10-11T14:30:26.132Z,101395.83
2022-10-11T14:32:55.561Z,101394.45
2022-10-11T14:35:34.238Z,101390.14
2022-10-11T14:38:06.036Z,101387.70
2022-10-11T14:40:39.781Z,101388.25
2022-10-11T14:43:12.149Z,101390.16
2022-10-11T14:45:44.154Z,101390.89
2022-10-11T14:48:26.676Z,101394.27
2022-10-11T14:51:10.773Z,101395.17
2022-10-11T14:53:46.362Z,101394.61
2022-10-11T14:56:21.547Z,101396.30
2022-10-11T14:58:53.879Z,101397.21
2022-10-11T15:01:26.480Z,101400.31
2022-10-11T15:03:58.212Z,101399.22
2022-10-11T15:06:34.294Z,101404.14
2022-10-11T15:09:07.983Z,101399.15
2022-10-11T15:11:41.003Z,101399.95
2022-10-11T15:14:13.557Z,101399.17
2022-10-11T15:16:45.813Z,101400.53
2022-10-11T15:19:20.686Z,101404.09
2022-10-11T15:21:53.251Z,101409.37
2022-10-11T15:24:26.382Z,101407.55
2022-10-11T15:26:58.979Z,101411.31
2022-10-11T15:29:31.222Z,101409.50
2022-10-11T15:32:03.371Z,101410.85
2022-10-11T15:34:35.145Z,101413.41
2022-10-11T15:37:07.001Z,101415.94
2022-10-11T15:39:39.119Z,101413.30
2022-10-11T15:42:13.895Z,101413.66
2022-10-11T15:44:48.307Z,101416.89
2022-10-11T15:47:22.385Z,101420.30
2022-10-11T15:49:55.305Z,101414.09
2022-10-11T15:52:27.772Z,101422.14
2022-10-11T15:54:59.542Z,101421.95
2022-10-11T15:57:31.654Z,101425.36
2022-10-11T16:00:04.301Z,101429.57
2022-10-11T16:02:44.115Z,101431.83
2022-10-11T16:05:22.254Z,101430.61
2022-10-11T16:07:55.223Z,101433.08
2022-10-11T16:10:27.557Z,101431.29
2022-10-11T16:13:00.041Z,101435.80
2022-10-11T16:15:32.475Z,101433.97
2022-10-11T16:18:04.228Z,101439.00
2022-10-11T16:20:38.673Z,101442.06
2022-10-11T16:23:11.477Z,101436.97
2022-10-11T16:25:41.804Z,101442.15
2022-10-11T16:28:13.410Z,101441.92
2022-10-11T16:30:45.474Z,101442.63
2022-10-11T16:33:17.894Z,101444.16
2022-10-11T16:35:50.648Z,101443.20
2022-10-11T16:38:22.589Z,101443.64
2022-10-11T16:40:54.205Z,101447.30
2022-10-11T16:43:26.082Z,101444.65
2022-10-11T16:46:00.874Z,101452.06
2022-10-11T16:48:33.529Z,101450.52
2022-10-11T16:51:10.131Z,101452.32
2022-10-11T16:53:42.093Z,101453.23
2022-10-11T16:56:14.733Z,101455.63
2022-10-11T16:58:45.467Z,101460.23
2022-10-11T17:01:17.680Z,101458.31
2022-10-11T17:03:51.222Z,101457.20
2022-10-11T17:06:26.151Z,101460.55
2022-10-11T17:08:59.861Z,101459.91
2022-10-11T17:11:32.145Z,101463.29
2022-10-11T17:14:05.133Z,101463.73
2022-10-11T17:16:38.892Z,101468.27
2022-10-11T17:19:15.508Z,101471.89
2022-10-11T17:21:48.343Z,101468.52
2022-10-11T17:24:21.365Z,101473.54
2022-10-11T17:26:53.977Z,101473.40
2022-10-11T17:29:26.621Z,101473.63
2022-10-11T17:31:58.677Z,101475.80
2022-10-11T17:34:31.216Z,101476.52
2022-10-11T17:37:03.668Z,101479.23
2022-10-11T17:39:37.015Z,101478.86
2022-10-11T17:42:09.999Z,101474.61
2022-10-11T17:44:43.258Z,101480.81
2022-10-11T17:47:16.331Z,101481.75
2022-10-11T17:49:48.993Z,101482.17
2022-10-11T17:52:21.468Z,101486.02
2022-10-11T17:54:53.706Z,101482.57
2022-10-11T17:57:25.853Z,101486.52
2022-10-11T17:59:57.903Z,101490.65
2022-10-11T18:02:30.241Z,101494.05
2022-10-11T18:05:03.281Z,101491.95
2022-10-11T18:07:36.345Z,101491.27
2022-10-11T18:10:10.949Z,101491.04
2022-10-11T18:12:42.658Z,101489.61
2022-10-11T18:15:15.910Z,101493.09
2022-10-11T18:17:48.976Z,101493.23
2022-10-11T18:20:20.701Z,101494.78
2022-10-11T18:22:54.218Z,101496.48
2022-10-11T18:25:25.899Z,101498.77
2022-10-11T18:27:57.887Z,101499.89
2022-10-11T18:30:29.974Z,101499.23
2022-10-11T18:33:01.736Z,101499.89
2022-10-11T18:35:33.506Z,101500.85
2022-10-11T18:38:06.021Z,101498.55
2022-10-11T18:40:46.160Z,101502.16
2022-10-11T18:43:18.735Z,101502.51
2022-10-11T18:45:51.911Z,101502.55
2022-10-11T18:48:23.538Z,101502.75
2022-10-11T18:51:05.049Z,101503.83
2022-10-11T18:53:38.284Z,101503.23
2022-10-11T18:56:12.169Z,101503.88
2022-10-11T18:58:45.820Z,101500.77
2022-10-11T19:01:20.425Z,101501.30
2022-10-11T19:03:56.486Z,101500.14
2022-10-11T19:06:30.301Z,101496.50
2022-10-11T19:09:05.645Z,101496.59
2022-10-11T19:11:37.447Z,101496.16
2022-10-11T19:14:11.427Z,101499.19
2022-10-11T19:16:46.352Z,101498.91
2022-10-11T19:19:19.771Z,101498.63
2022-10-11T19:21:53.636Z,101500.16
2022-10-11T19:24:31.017Z,101502.05
2022-10-11T19:27:05.179Z,101502.62
2022-10-11T19:29:38.456Z,101504.13
2022-10-11T19:32:13.803Z,101499.58
2022-10-11T19:34:46.705Z,101494.35
2022-10-11T19:37:18.264Z,101497.06
2022-10-11T19:39:50.799Z,101495.29
2022-10-11T19:42:22.746Z,101494.70
2022-10-11T19:44:55.748Z,101499.77
2022-10-11T19:47:27.026Z,101500.56
2022-10-11T19:49:59.555Z,101497.47
2022-10-11T19:52:30.975Z,101495.32
2022-10-11T19:55:04.119Z,101500.66
2022-10-11T19:57:34.638Z,101499.99
2022-10-11T20:00:07.580Z,101507.44
2022-10-11T20:02:40.401Z,101506.30
2022-10-11T20:05:12.647Z,101509.76
2022-10-11T20:07:45.683Z,101507.39
2022-10-11T20:10:19.489Z,101505.79
2022-10-11T20:12:51.904Z,101507.10
2022-10-11T20:15:24.984Z,101511.81
2022-10-11T20:17:57.355Z,101511.85
2022-10-11T20:20:30.263Z,101510.75
2022-10-11T20:23:02.566Z,101510.95
2022-10-11T20:25:35.121Z,101506.61
2022-10-11T20:28:08.713Z,101505.06
2022-10-11T20:30:46.196Z,101504.88
2022-10-11T20:33:18.358Z,101507.77
2022-10-11T20:36:02.722Z,101505.96
2022-10-11T20:38:38.033Z,101506.89
2022-10-11T20:41:12.384Z,101504.63
2022-10-11T20:43:46.651Z,101510.83
2022-10-11T20:46:20.306Z,101505.99
2022-10-11T20:48:58.859Z,101508.34
2022-10-11T20:51:35.126Z,101504.56
2022-10-11T20:54:07.609Z,101504.73
2022-10-11T20:56:39.739Z,101503.26
2022-10-11T20:59:12.621Z,101503.80
2022-10-11T21:01:46.117Z,101505.80
2022-10-11T21:04:21.450Z,101508.52
2022-10-11T21:06:54.345Z,101511.58
2022-10-11T21:09:26.604Z,101508.70
2022-10-11T21:12:01.821Z,101507.97
2022-10-11T21:14:33.917Z,101510.50
2022-10-11T21:17:08.415Z,101515.19
2022-10-11T21:19:41.456Z,101515.88
2022-10-11T21:22:13.598Z,101513.75
2022-10-11T21:24:45.604Z,101516.27
2022-10-11T21:27:17.341Z,101515.34
2022-10-11T21:29:49.115Z,101518.79
2022-10-11T21:32:21.665Z,101519.52
2022-10-11T21:34:53.722Z,101520.05
2022-10-11T21:37:27.913Z,101524.40
2022-10-11T21:39:59.987Z,101528.74
2022-10-11T21:42:32.594Z,101527.65
2022-10-11T21:45:05.746Z,101529.80
2022-10-11T21:47:39.227Z,101533.59
2022-10-11T21:50:11.625Z,101531.23
2022-10-11T21:52:43.282Z,101534.84
2022-10-11T21:55:15.024Z,101537.02
2022-10-11T21:57:47.410Z,101534.29
2022-10-11T22:00:19.377Z,101534.83
2022-10-11T22:02:52.524Z,101534.99
2022-10-11T22:05:24.568Z,101532.29
2022-10-11T22:07:56.207Z,101534.98
2022-10-11T22:10:29.093Z,101535.52
2022-10-11T22:12:59.500Z,101536.58
2022-10-11T22:15:33.741Z,101533.70
2022-10-11T22:18:06.089Z,101527.58
2022-10-11T22:20:37.796Z,101532.24
2022-10-11T22:23:09.638Z,101530.42
2022-10-11T22:25:42.134Z,101528.66
2022-10-11T22:28:13.554Z,101528.30
2022-10-11T22:30:45.884Z,101527.20
2022-10-11T22:33:19.597Z,101528.95
2022-10-11T22:35:56.316Z,101527.45
2022-10-11T22:38:28.861Z,101527.44
2022-10-11T22:40:59.972Z,101526.52
2022-10-11T22:43:32.102Z,101524.19
2022-10-11T22:46:04.069Z,101529.39
2022-10-11T22:48:35.762Z,101528.67
2022-10-11T22:51:07.596Z,101531.36
2022-10-11T22:53:39.520Z,101529.59
2022-10-11T22:56:11.938Z,101529.20
2022-10-11T22:58:43.621Z,101528.48
2022-10-11T23:01:17.381Z,101531.16
2022-10-11T23:03:52.381Z,101534.70
2022-10-11T23:06:24.700Z,101535.40
2022-10-11T23:08:57.362Z,101523.98
2022-10-11T23:11:31.099Z,101529.70
2022-10-11T23:14:04.134Z,101530.62
2022-10-11T23:16:36.186Z,101532.84
2022-10-11T23:19:08.032Z,101535.79
2022-10-11T23:21:40.363Z,101535.41
2022-10-11T23:24:12.997Z,101533.18
2022-10-11T23:26:45.292Z,101536.23
2022-10-11T23:29:17.383Z,101537.63
2022-10-11T23:31:49.175Z,101543.56
2022-10-11T23:34:22.536Z,101539.09
2022-10-11T23:36:54.345Z,101539.26
2022-10-11T23:39:26.135Z,101539.59
2022-10-11T23:41:58.945Z,101541.35
2022-10-11T23:44:29.015Z,101546.27
2022-10-11T23:47:00.927Z,101546.65
2022-10-11T23:49:32.875Z,101545.05
2022-10-11T23:52:05.296Z,101551.17
2022-10-11T23:54:36.985Z,101549.36
2022-10-11T23:57:09.066Z,101553.69
2022-10-11T23:59:41.278Z,101550.30
